KBGM 050750Z 0508/0606 01008KT P6SM BKN005 OVC012
FM051400 36006KT P6SM SCT018 SCT060
From batch tds/tafs/production/2024/2/5/h08_m00_tafs.cache.xml.gz
Issued (18 days ago)
Forecasts
0508/0514 1008KT 6+SM BKN500 OVC1200

---
fcst_time_to: '2024-02-05T14:00:00Z'
sky_condition:
- - sky_cover: BKN
    cloud_base_ft_agl: '500'
- - sky_cover: OVC
    cloud_base_ft_agl: '1200'
wind_speed_kt: '8'
fcst_time_from: '2024-02-05T08:00:00Z'
wind_dir_degrees: '10'
visibility_statute_mi: 6+

FM051400 36006KT 6+SM SCT1800 SCT6000

---
fcst_time_to: '2024-02-06T06:00:00Z'
sky_condition:
- - sky_cover: SCT
    cloud_base_ft_agl: '1800'
- - sky_cover: SCT
    cloud_base_ft_agl: '6000'
wind_speed_kt: '6'
fcst_time_from: '2024-02-05T14:00:00Z'
change_indicator: FM
wind_dir_degrees: '360'
visibility_statute_mi: 6+

talk